KGRB/GRB METAR and TAF weather

Enter ICAO airport designator
Station Type Date Time Source
KGRB METAR 2021/01/22 06:53 UTC NOAA

KGRB 220653Z AUTO 31012G21KT 10SM CLR M09/M16 A2989 RMK AO2 SLP133 T10891161


Station Type Date Time Source
KGRB Decoded METAR 2021/01/22 06:53 UTC NOAA

AUSTIN STRAUBEL INTERNATIONAL AIRPORT , WI, United States (KGRB) 44-29N 088-08W 205M
Jan 22, 2021 - 01:53 AM EST / 2021.01.22 0653 UTC
Wind: from the NW (310 degrees) at 14 MPH (12 KT) gusting to 24 MPH (21 KT):0
Visibility: 10 mile(s):0
Sky conditions: clear
Temperature: 16.0 F (-8.9 C)
Windchill: 1 F (-17 C):1
Dew Point: 3.0 F (-16.1 C)
Relative Humidity: 55%
Pressure (altimeter): 29.89 in. Hg (1012 hPa)
ob: KGRB 220653Z AUTO 31012G21KT 10SM CLR M09/M16 A2989 RMK AO2 SLP133 T10891161
cycle: 7

Station Type Date Time Source
KGRB TAF 2021/01/22 06:22 UTC NOAA

TAF KGRB 220520Z 2206/2306 31014G23KT P6SM SCT035
TEMPO 2206/2210 BKN035
FM221500 30012G18KT P6SM SKC
FM230000 28007KT P6SM SCT100

Example: see airport list